sensor_id;sensor_type;location;lat;lon;timestamp;temperature;humidity
33863;DHT22;20158;51.436;-2.742;2022-08-16T00:01:48;21.00;61.30
33863;DHT22;20158;51.436;-2.742;2022-08-16T00:04:14;21.00;61.40
33863;DHT22;20158;51.436;-2.742;2022-08-16T00:06:40;21.00;61.50
33863;DHT22;20158;51.436;-2.742;2022-08-16T00:09:07;20.90;61.30
33863;DHT22;20158;51.436;-2.742;2022-08-16T00:11:34;20.90;61.40
33863;DHT22;20158;51.436;-2.742;2022-08-16T00:14:00;20.80;61.20
33863;DHT22;20158;51.436;-2.742;2022-08-16T00:16:28;20.80;61.30
33863;DHT22;20158;51.436;-2.742;2022-08-16T00:18:59;20.80;61.40
33863;DHT22;20158;51.436;-2.742;2022-08-16T00:21:26;20.80;61.40
33863;DHT22;20158;51.436;-2.742;2022-08-16T00:23:52;20.80;61.50
33863;DHT22;20158;51.436;-2.742;2022-08-16T00:26:18;20.70;61.30
33863;DHT22;20158;51.436;-2.742;2022-08-16T00:28:44;20.70;61.40
33863;DHT22;20158;51.436;-2.742;2022-08-16T00:31:09;20.70;61.40
33863;DHT22;20158;51.436;-2.742;2022-08-16T00:33:35;20.70;61.50
33863;DHT22;20158;51.436;-2.742;2022-08-16T00:36:02;20.70;61.50
33863;DHT22;20158;51.436;-2.742;2022-08-16T00:38:28;20.60;61.40
33863;DHT22;20158;51.436;-2.742;2022-08-16T00:40:54;20.60;61.40
33863;DHT22;20158;51.436;-2.742;2022-08-16T00:43:33;20.60;61.50
33863;DHT22;20158;51.436;-2.742;2022-08-16T00:46:03;20.50;61.40
33863;DHT22;20158;51.436;-2.742;2022-08-16T00:48:31;20.50;61.40
33863;DHT22;20158;51.436;-2.742;2022-08-16T00:51:01;20.50;61.50
33863;DHT22;20158;51.436;-2.742;2022-08-16T00:53:29;20.50;61.50
33863;DHT22;20158;51.436;-2.742;2022-08-16T00:55:57;20.40;61.40
33863;DHT22;20158;51.436;-2.742;2022-08-16T00:58:26;20.40;61.50
33863;DHT22;20158;51.436;-2.742;2022-08-16T01:00:54;20.40;61.50
33863;DHT22;20158;51.436;-2.742;2022-08-16T01:03:22;20.40;61.60
33863;DHT22;20158;51.436;-2.742;2022-08-16T01:05:50;20.40;61.60
33863;DHT22;20158;51.436;-2.742;2022-08-16T01:08:19;20.40;61.70
33863;DHT22;20158;51.436;-2.742;2022-08-16T01:10:47;20.40;61.70
33863;DHT22;20158;51.436;-2.742;2022-08-16T01:13:17;20.40;61.70
33863;DHT22;20158;51.436;-2.742;2022-08-16T01:15:48;20.40;61.70
33863;DHT22;20158;51.436;-2.742;2022-08-16T01:18:16;20.40;61.70
33863;DHT22;20158;51.436;-2.742;2022-08-16T01:20:50;20.30;61.60
33863;DHT22;20158;51.436;-2.742;2022-08-16T01:23:44;20.30;61.60
33863;DHT22;20158;51.436;-2.742;2022-08-16T01:26:14;20.30;61.70
33863;DHT22;20158;51.436;-2.742;2022-08-16T01:28:42;20.30;61.60
33863;DHT22;20158;51.436;-2.742;2022-08-16T01:31:10;20.20;61.60
33863;DHT22;20158;51.436;-2.742;2022-08-16T01:33:37;20.20;61.60
33863;DHT22;20158;51.436;-2.742;2022-08-16T01:36:08;20.20;61.70
33863;DHT22;20158;51.436;-2.742;2022-08-16T01:38:40;20.20;61.80
33863;DHT22;20158;51.436;-2.742;2022-08-16T01:41:10;20.20;61.80
33863;DHT22;20158;51.436;-2.742;2022-08-16T01:43:40;20.20;61.80
33863;DHT22;20158;51.436;-2.742;2022-08-16T01:48:55;20.10;61.80
33863;DHT22;20158;51.436;-2.742;2022-08-16T01:51:24;20.10;61.80
33863;DHT22;20158;51.436;-2.742;2022-08-16T01:53:52;20.10;61.80
33863;DHT22;20158;51.436;-2.742;2022-08-16T01:56:26;20.10;61.80
33863;DHT22;20158;51.436;-2.742;2022-08-16T01:58:56;20.10;61.90
33863;DHT22;20158;51.436;-2.742;2022-08-16T02:01:23;20.10;62.00
33863;DHT22;20158;51.436;-2.742;2022-08-16T02:03:50;20.00;61.90
33863;DHT22;20158;51.436;-2.742;2022-08-16T02:06:16;20.00;61.90
33863;DHT22;20158;51.436;-2.742;2022-08-16T02:08:42;20.00;62.00
33863;DHT22;20158;51.436;-2.742;2022-08-16T02:11:08;20.00;62.10
33863;DHT22;20158;51.436;-2.742;2022-08-16T02:13:37;20.00;62.20
33863;DHT22;20158;51.436;-2.742;2022-08-16T02:16:06;20.00;62.20
33863;DHT22;20158;51.436;-2.742;2022-08-16T02:18:33;20.00;62.20
33863;DHT22;20158;51.436;-2.742;2022-08-16T02:21:00;20.00;62.20
33863;DHT22;20158;51.436;-2.742;2022-08-16T02:23:26;20.00;62.30
33863;DHT22;20158;51.436;-2.742;2022-08-16T02:25:53;20.00;62.30
33863;DHT22;20158;51.436;-2.742;2022-08-16T02:28:20;20.00;62.40
33863;DHT22;20158;51.436;-2.742;2022-08-16T02:30:46;20.00;62.40
33863;DHT22;20158;51.436;-2.742;2022-08-16T02:33:13;20.00;62.40
33863;DHT22;20158;51.436;-2.742;2022-08-16T02:35:39;20.00;62.50
33863;DHT22;20158;51.436;-2.742;2022-08-16T02:38:05;20.00;62.50
33863;DHT22;20158;51.436;-2.742;2022-08-16T02:40:33;20.00;62.60
33863;DHT22;20158;51.436;-2.742;2022-08-16T02:42:59;20.00;62.60
33863;DHT22;20158;51.436;-2.742;2022-08-16T02:45:27;20.00;62.70
33863;DHT22;20158;51.436;-2.742;2022-08-16T02:47:54;20.00;62.70
33863;DHT22;20158;51.436;-2.742;2022-08-16T02:50:20;20.00;62.70
33863;DHT22;20158;51.436;-2.742;2022-08-16T02:52:46;20.00;62.80
33863;DHT22;20158;51.436;-2.742;2022-08-16T02:55:13;20.00;62.80
33863;DHT22;20158;51.436;-2.742;2022-08-16T02:57:39;19.90;62.70
33863;DHT22;20158;51.436;-2.742;2022-08-16T03:00:08;19.90;62.70
33863;DHT22;20158;51.436;-2.742;2022-08-16T03:02:38;19.90;62.80
33863;DHT22;20158;51.436;-2.742;2022-08-16T03:05:09;19.90;62.80
33863;DHT22;20158;51.436;-2.742;2022-08-16T03:07:36;19.90;62.80
33863;DHT22;20158;51.436;-2.742;2022-08-16T03:10:04;19.90;62.90
33863;DHT22;20158;51.436;-2.742;2022-08-16T03:12:34;19.90;63.00
33863;DHT22;20158;51.436;-2.742;2022-08-16T03:15:00;19.90;63.50
33863;DHT22;20158;51.436;-2.742;2022-08-16T03:17:27;19.90;63.10
33863;DHT22;20158;51.436;-2.742;2022-08-16T03:19:58;19.90;63.10
33863;DHT22;20158;51.436;-2.742;2022-08-16T03:22:24;19.90;63.10
33863;DHT22;20158;51.436;-2.742;2022-08-16T03:24:50;19.90;63.10
33863;DHT22;20158;51.436;-2.742;2022-08-16T03:27:16;19.90;63.20
33863;DHT22;20158;51.436;-2.742;2022-08-16T03:29:42;19.90;63.70
33863;DHT22;20158;51.436;-2.742;2022-08-16T03:32:08;19.90;63.20
33863;DHT22;20158;51.436;-2.742;2022-08-16T03:34:34;19.90;63.30
33863;DHT22;20158;51.436;-2.742;2022-08-16T03:37:01;19.90;63.30
33863;DHT22;20158;51.436;-2.742;2022-08-16T03:39:27;19.90;63.30
33863;DHT22;20158;51.436;-2.742;2022-08-16T03:41:54;19.90;63.40
33863;DHT22;20158;51.436;-2.742;2022-08-16T03:44:20;19.90;63.50
33863;DHT22;20158;51.436;-2.742;2022-08-16T03:46:47;19.90;63.50
33863;DHT22;20158;51.436;-2.742;2022-08-16T03:49:14;19.80;63.40
33863;DHT22;20158;51.436;-2.742;2022-08-16T03:51:44;19.80;63.40
33863;DHT22;20158;51.436;-2.742;2022-08-16T03:54:18;19.90;63.60
33863;DHT22;20158;51.436;-2.742;2022-08-16T03:56:45;19.90;63.60
33863;DHT22;20158;51.436;-2.742;2022-08-16T03:59:11;19.80;63.40
33863;DHT22;20158;51.436;-2.742;2022-08-16T04:01:46;19.80;63.50
33863;DHT22;20158;51.436;-2.742;2022-08-16T04:04:12;19.80;63.50
33863;DHT22;20158;51.436;-2.742;2022-08-16T04:06:38;19.80;63.60
33863;DHT22;20158;51.436;-2.742;2022-08-16T04:09:04;19.80;63.70
33863;DHT22;20158;51.436;-2.742;2022-08-16T04:11:31;19.80;63.80
33863;DHT22;20158;51.436;-2.742;2022-08-16T04:13:58;19.80;63.80
33863;DHT22;20158;51.436;-2.742;2022-08-16T04:16:25;19.70;63.60
33863;DHT22;20158;51.436;-2.742;2022-08-16T04:18:51;19.70;63.70
33863;DHT22;20158;51.436;-2.742;2022-08-16T04:21:18;19.80;63.90
33863;DHT22;20158;51.436;-2.742;2022-08-16T04:23:44;19.70;63.80
33863;DHT22;20158;51.436;-2.742;2022-08-16T04:26:10;19.70;63.80
33863;DHT22;20158;51.436;-2.742;2022-08-16T04:28:39;19.70;63.90
33863;DHT22;20158;51.436;-2.742;2022-08-16T04:31:08;19.70;63.90
33863;DHT22;20158;51.436;-2.742;2022-08-16T04:33:36;19.70;64.00
33863;DHT22;20158;51.436;-2.742;2022-08-16T04:36:02;19.70;64.00
33863;DHT22;20158;51.436;-2.742;2022-08-16T04:38:28;19.80;64.20
33863;DHT22;20158;51.436;-2.742;2022-08-16T04:40:54;19.80;64.20
33863;DHT22;20158;51.436;-2.742;2022-08-16T04:43:21;19.80;64.30
33863;DHT22;20158;51.436;-2.742;2022-08-16T04:45:48;19.80;64.30
33863;DHT22;20158;51.436;-2.742;2022-08-16T04:48:19;19.80;64.40
33863;DHT22;20158;51.436;-2.742;2022-08-16T04:50:52;19.80;64.40
33863;DHT22;20158;51.436;-2.742;2022-08-16T04:53:20;19.70;64.20
33863;DHT22;20158;51.436;-2.742;2022-08-16T04:55:49;19.80;64.40
33863;DHT22;20158;51.436;-2.742;2022-08-16T04:58:15;19.80;64.50
33863;DHT22;20158;51.436;-2.742;2022-08-16T05:00:41;19.70;64.40
33863;DHT22;20158;51.436;-2.742;2022-08-16T05:03:11;19.70;64.40
33863;DHT22;20158;51.436;-2.742;2022-08-16T05:05:44;19.70;64.50
33863;DHT22;20158;51.436;-2.742;2022-08-16T05:08:12;19.70;64.50
33863;DHT22;20158;51.436;-2.742;2022-08-16T05:10:42;19.70;64.60
33863;DHT22;20158;51.436;-2.742;2022-08-16T05:13:09;19.70;64.60
33863;DHT22;20158;51.436;-2.742;2022-08-16T05:15:35;19.70;64.70
33863;DHT22;20158;51.436;-2.742;2022-08-16T05:18:02;19.70;64.80
33863;DHT22;20158;51.436;-2.742;2022-08-16T05:20:32;19.70;64.80
33863;DHT22;20158;51.436;-2.742;2022-08-16T05:22:59;19.70;64.80
33863;DHT22;20158;51.436;-2.742;2022-08-16T05:25:26;19.70;64.90
33863;DHT22;20158;51.436;-2.742;2022-08-16T05:27:53;19.70;65.00
33863;DHT22;20158;51.436;-2.742;2022-08-16T05:30:23;19.70;65.00
33863;DHT22;20158;51.436;-2.742;2022-08-16T05:32:49;19.70;65.10
33863;DHT22;20158;51.436;-2.742;2022-08-16T05:35:16;19.70;65.80
33863;DHT22;20158;51.436;-2.742;2022-08-16T05:38:08;19.70;65.10
33863;DHT22;20158;51.436;-2.742;2022-08-16T05:40:36;19.70;65.10
33863;DHT22;20158;51.436;-2.742;2022-08-16T05:43:02;19.80;65.30
33863;DHT22;20158;51.436;-2.742;2022-08-16T05:45:28;19.80;65.40
33863;DHT22;20158;51.436;-2.742;2022-08-16T05:47:59;19.80;65.40
33863;DHT22;20158;51.436;-2.742;2022-08-16T05:50:31;19.80;65.50
33863;DHT22;20158;51.436;-2.742;2022-08-16T05:52:56;19.80;65.50
33863;DHT22;20158;51.436;-2.742;2022-08-16T05:55:23;19.80;65.60
33863;DHT22;20158;51.436;-2.742;2022-08-16T05:57:49;19.80;65.70
33863;DHT22;20158;51.436;-2.742;2022-08-16T06:00:15;19.80;66.10
33863;DHT22;20158;51.436;-2.742;2022-08-16T06:02:45;19.90;66.70
33863;DHT22;20158;51.436;-2.742;2022-08-16T06:05:33;19.90;67.10
33863;DHT22;20158;51.436;-2.742;2022-08-16T06:07:59;20.00;67.60
33863;DHT22;20158;51.436;-2.742;2022-08-16T06:10:31;20.00;67.90
33863;DHT22;20158;51.436;-2.742;2022-08-16T06:12:57;20.10;68.30
33863;DHT22;20158;51.436;-2.742;2022-08-16T06:15:24;20.10;68.60
33863;DHT22;20158;51.436;-2.742;2022-08-16T06:17:50;20.20;69.00
33863;DHT22;20158;51.436;-2.742;2022-08-16T06:20:23;20.20;69.30
33863;DHT22;20158;51.436;-2.742;2022-08-16T06:22:50;20.30;69.60
33863;DHT22;20158;51.436;-2.742;2022-08-16T06:25:17;20.30;69.60
33863;DHT22;20158;51.436;-2.742;2022-08-16T06:27:44;20.40;69.90
33863;DHT22;20158;51.436;-2.742;2022-08-16T06:30:11;20.40;70.00
33863;DHT22;20158;51.436;-2.742;2022-08-16T06:32:39;20.50;70.20
33863;DHT22;20158;51.436;-2.742;2022-08-16T06:35:08;20.60;70.50
33863;DHT22;20158;51.436;-2.742;2022-08-16T06:37:35;20.60;70.40
33863;DHT22;20158;51.436;-2.742;2022-08-16T06:40:01;20.70;70.50
33863;DHT22;20158;51.436;-2.742;2022-08-16T06:42:38;20.80;70.50
33863;DHT22;20158;51.436;-2.742;2022-08-16T06:45:10;20.80;70.30
33863;DHT22;20158;51.436;-2.742;2022-08-16T06:47:42;20.90;70.30
33863;DHT22;20158;51.436;-2.742;2022-08-16T06:50:08;20.90;70.10
33863;DHT22;20158;51.436;-2.742;2022-08-16T06:52:40;20.90;70.00
33863;DHT22;20158;51.436;-2.742;2022-08-16T06:55:08;20.90;69.90
33863;DHT22;20158;51.436;-2.742;2022-08-16T06:57:36;21.00;70.00
33863;DHT22;20158;51.436;-2.742;2022-08-16T07:00:04;21.00;69.80
33863;DHT22;20158;51.436;-2.742;2022-08-16T07:02:41;21.00;69.80
33863;DHT22;20158;51.436;-2.742;2022-08-16T07:05:08;21.10;69.80
33863;DHT22;20158;51.436;-2.742;2022-08-16T07:07:35;21.10;69.70
33863;DHT22;20158;51.436;-2.742;2022-08-16T07:10:05;21.20;69.70
33863;DHT22;20158;51.436;-2.742;2022-08-16T07:12:31;21.20;69.60
33863;DHT22;20158;51.436;-2.742;2022-08-16T07:14:57;21.20;69.50
33863;DHT22;20158;51.436;-2.742;2022-08-16T07:17:28;21.30;69.50
33863;DHT22;20158;51.436;-2.742;2022-08-16T07:19:54;21.30;69.40
33863;DHT22;20158;51.436;-2.742;2022-08-16T07:22:25;21.40;69.90
33863;DHT22;20158;51.436;-2.742;2022-08-16T07:24:51;21.40;69.80
33863;DHT22;20158;51.436;-2.742;2022-08-16T07:27:18;21.50;69.30
33863;DHT22;20158;51.436;-2.742;2022-08-16T07:29:44;21.50;69.10
33863;DHT22;20158;51.436;-2.742;2022-08-16T07:32:11;21.50;69.00
33863;DHT22;20158;51.436;-2.742;2022-08-16T07:34:36;21.50;68.80
33863;DHT22;20158;51.436;-2.742;2022-08-16T07:37:08;21.60;68.90
33863;DHT22;20158;51.436;-2.742;2022-08-16T07:39:55;21.60;68.80
33863;DHT22;20158;51.436;-2.742;2022-08-16T07:42:21;21.70;69.30
33863;DHT22;20158;51.436;-2.742;2022-08-16T07:44:48;21.70;68.60
33863;DHT22;20158;51.436;-2.742;2022-08-16T07:47:15;21.80;68.60
33863;DHT22;20158;51.436;-2.742;2022-08-16T07:49:42;21.90;68.60
33863;DHT22;20158;51.436;-2.742;2022-08-16T07:52:08;21.90;68.40
33863;DHT22;20158;51.436;-2.742;2022-08-16T07:54:34;22.00;68.40
33863;DHT22;20158;51.436;-2.742;2022-08-16T07:57:05;22.10;68.30
33863;DHT22;20158;51.436;-2.742;2022-08-16T07:59:32;22.10;68.10
33863;DHT22;20158;51.436;-2.742;2022-08-16T08:01:58;22.10;68.00
33863;DHT22;20158;51.436;-2.742;2022-08-16T08:04:26;22.20;67.90
33863;DHT22;20158;51.436;-2.742;2022-08-16T08:06:52;22.30;67.90
33863;DHT22;20158;51.436;-2.742;2022-08-16T08:09:18;22.40;67.80
33863;DHT22;20158;51.436;-2.742;2022-08-16T08:11:44;22.40;67.50
33863;DHT22;20158;51.436;-2.742;2022-08-16T08:14:10;22.50;67.50
33863;DHT22;20158;51.436;-2.742;2022-08-16T08:16:42;22.60;67.40
33863;DHT22;20158;51.436;-2.742;2022-08-16T08:19:08;22.70;67.20
33863;DHT22;20158;51.436;-2.742;2022-08-16T08:21:38;22.80;67.10
33863;DHT22;20158;51.436;-2.742;2022-08-16T08:24:07;22.90;66.90
33863;DHT22;20158;51.436;-2.742;2022-08-16T08:26:34;23.10;66.90
33863;DHT22;20158;51.436;-2.742;2022-08-16T08:29:00;23.20;66.70
33863;DHT22;20158;51.436;-2.742;2022-08-16T08:31:26;23.30;66.60
33863;DHT22;20158;51.436;-2.742;2022-08-16T08:33:52;23.50;66.50
33863;DHT22;20158;51.436;-2.742;2022-08-16T08:36:29;23.60;66.30
33863;DHT22;20158;51.436;-2.742;2022-08-16T08:38:57;23.80;66.20
33863;DHT22;20158;51.436;-2.742;2022-08-16T08:41:24;23.90;66.00
33863;DHT22;20158;51.436;-2.742;2022-08-16T08:43:54;24.10;65.90
33863;DHT22;20158;51.436;-2.742;2022-08-16T08:46:21;24.20;65.70
33863;DHT22;20158;51.436;-2.742;2022-08-16T08:48:52;24.40;65.60
33863;DHT22;20158;51.436;-2.742;2022-08-16T08:51:19;24.50;65.40
33863;DHT22;20158;51.436;-2.742;2022-08-16T08:53:52;24.60;65.20
33863;DHT22;20158;51.436;-2.742;2022-08-16T08:56:18;24.70;65.10
33863;DHT22;20158;51.436;-2.742;2022-08-16T08:58:46;24.80;65.00
33863;DHT22;20158;51.436;-2.742;2022-08-16T09:01:34;24.90;64.90
33863;DHT22;20158;51.436;-2.742;2022-08-16T09:04:00;25.00;64.80
33863;DHT22;20158;51.436;-2.742;2022-08-16T09:06:29;25.00;64.60
33863;DHT22;20158;51.436;-2.742;2022-08-16T09:08:58;25.10;64.40
33863;DHT22;20158;51.436;-2.742;2022-08-16T09:11:27;25.10;64.20
33863;DHT22;20158;51.436;-2.742;2022-08-16T09:13:54;25.20;64.10
33863;DHT22;20158;51.436;-2.742;2022-08-16T09:16:20;25.20;63.80
33863;DHT22;20158;51.436;-2.742;2022-08-16T09:18:46;25.30;63.70
33863;DHT22;20158;51.436;-2.742;2022-08-16T09:21:13;25.30;63.60
33863;DHT22;20158;51.436;-2.742;2022-08-16T09:23:40;25.40;63.50
33863;DHT22;20158;51.436;-2.742;2022-08-16T09:26:09;25.40;63.30
33863;DHT22;20158;51.436;-2.742;2022-08-16T09:28:36;25.50;63.20
33863;DHT22;20158;51.436;-2.742;2022-08-16T09:31:09;25.50;63.10
33863;DHT22;20158;51.436;-2.742;2022-08-16T09:33:35;25.60;63.00
33863;DHT22;20158;51.436;-2.742;2022-08-16T09:36:01;25.60;62.80
33863;DHT22;20158;51.436;-2.742;2022-08-16T09:38:28;25.70;62.70
33863;DHT22;20158;51.436;-2.742;2022-08-16T09:40:56;25.70;62.60
33863;DHT22;20158;51.436;-2.742;2022-08-16T09:43:23;25.80;62.40
33863;DHT22;20158;51.436;-2.742;2022-08-16T09:45:50;25.90;62.30
33863;DHT22;20158;51.436;-2.742;2022-08-16T09:48:16;25.90;62.00
33863;DHT22;20158;51.436;-2.742;2022-08-16T09:50:43;26.00;61.90
33863;DHT22;20158;51.436;-2.742;2022-08-16T09:53:18;26.10;61.80
33863;DHT22;20158;51.436;-2.742;2022-08-16T09:55:49;26.20;61.60
33863;DHT22;20158;51.436;-2.742;2022-08-16T09:58:18;26.30;61.40
33863;DHT22;20158;51.436;-2.742;2022-08-16T10:00:44;26.40;61.20
33863;DHT22;20158;51.436;-2.742;2022-08-16T10:03:10;26.50;61.00
33863;DHT22;20158;51.436;-2.742;2022-08-16T10:05:36;26.70;60.80
33863;DHT22;20158;51.436;-2.742;2022-08-16T10:08:06;26.80;60.50
33863;DHT22;20158;51.436;-2.742;2022-08-16T10:10:32;27.00;60.20
33863;DHT22;20158;51.436;-2.742;2022-08-16T10:12:59;27.20;59.90
33863;DHT22;20158;51.436;-2.742;2022-08-16T10:15:44;27.50;59.50
33863;DHT22;20158;51.436;-2.742;2022-08-16T10:18:12;27.70;59.00
33863;DHT22;20158;51.436;-2.742;2022-08-16T10:20:41;28.00;58.60
33863;DHT22;20158;51.436;-2.742;2022-08-16T10:23:10;28.20;58.30
33863;DHT22;20158;51.436;-2.742;2022-08-16T10:25:41;28.30;57.80
33863;DHT22;20158;51.436;-2.742;2022-08-16T10:28:08;28.50;57.50
33863;DHT22;20158;51.436;-2.742;2022-08-16T10:30:36;28.60;57.20
33863;DHT22;20158;51.436;-2.742;2022-08-16T10:33:03;28.80;56.90
33863;DHT22;20158;51.436;-2.742;2022-08-16T10:35:29;28.90;56.70
33863;DHT22;20158;51.436;-2.742;2022-08-16T10:37:55;29.00;57.10
33863;DHT22;20158;51.436;-2.742;2022-08-16T10:40:21;29.10;56.20
33863;DHT22;20158;51.436;-2.742;2022-08-16T10:42:47;29.20;56.00
33863;DHT22;20158;51.436;-2.742;2022-08-16T10:45:15;29.20;55.80
33863;DHT22;20158;51.436;-2.742;2022-08-16T10:47:41;29.20;55.60
33863;DHT22;20158;51.436;-2.742;2022-08-16T10:50:08;29.30;55.70
33863;DHT22;20158;51.436;-2.742;2022-08-16T10:52:36;29.20;55.40
33863;DHT22;20158;51.436;-2.742;2022-08-16T10:55:03;29.20;55.50
33863;DHT22;20158;51.436;-2.742;2022-08-16T10:57:29;29.20;55.40
33863;DHT22;20158;51.436;-2.742;2022-08-16T10:59:57;29.20;55.40
33863;DHT22;20158;51.436;-2.742;2022-08-16T11:02:23;29.20;55.40
33863;DHT22;20158;51.436;-2.742;2022-08-16T11:04:50;29.20;55.20
33863;DHT22;20158;51.436;-2.742;2022-08-16T11:07:17;29.30;55.20
33863;DHT22;20158;51.436;-2.742;2022-08-16T11:09:43;29.30;55.10
33863;DHT22;20158;51.436;-2.742;2022-08-16T11:12:09;29.40;55.00
33863;DHT22;20158;51.436;-2.742;2022-08-16T11:14:35;29.40;54.90
33863;DHT22;20158;51.436;-2.742;2022-08-16T11:17:03;29.50;54.80
33863;DHT22;20158;51.436;-2.742;2022-08-16T11:19:31;29.50;54.60
33863;DHT22;20158;51.436;-2.742;2022-08-16T11:21:58;29.60;54.60
33863;DHT22;20158;51.436;-2.742;2022-08-16T11:24:25;29.60;54.40
33863;DHT22;20158;51.436;-2.742;2022-08-16T11:26:52;29.70;54.40
33863;DHT22;20158;51.436;-2.742;2022-08-16T11:29:18;29.80;54.30
33863;DHT22;20158;51.436;-2.742;2022-08-16T11:31:44;29.90;54.20
33863;DHT22;20158;51.436;-2.742;2022-08-16T11:34:15;30.00;54.10
33863;DHT22;20158;51.436;-2.742;2022-08-16T11:36:41;30.10;53.90
33863;DHT22;20158;51.436;-2.742;2022-08-16T11:39:07;30.20;53.80
33863;DHT22;20158;51.436;-2.742;2022-08-16T11:41:33;30.30;53.60
33863;DHT22;20158;51.436;-2.742;2022-08-16T11:44:04;30.50;53.40
33863;DHT22;20158;51.436;-2.742;2022-08-16T11:46:30;30.60;53.20
33863;DHT22;20158;51.436;-2.742;2022-08-16T11:48:59;30.70;53.00
33863;DHT22;20158;51.436;-2.742;2022-08-16T11:51:25;30.80;52.80
33863;DHT22;20158;51.436;-2.742;2022-08-16T11:53:52;30.90;52.60
33863;DHT22;20158;51.436;-2.742;2022-08-16T11:56:18;31.00;52.50
33863;DHT22;20158;51.436;-2.742;2022-08-16T11:58:44;31.10;52.40
33863;DHT22;20158;51.436;-2.742;2022-08-16T12:01:10;31.10;52.10
33863;DHT22;20158;51.436;-2.742;2022-08-16T12:03:36;31.20;52.00
33863;DHT22;20158;51.436;-2.742;2022-08-16T12:06:12;31.30;51.80
33863;DHT22;20158;51.436;-2.742;2022-08-16T12:08:41;31.30;51.60
33863;DHT22;20158;51.436;-2.742;2022-08-16T12:11:08;31.40;51.50
33863;DHT22;20158;51.436;-2.742;2022-08-16T12:13:34;31.40;51.50
33863;DHT22;20158;51.436;-2.742;2022-08-16T12:16:01;31.40;51.30
33863;DHT22;20158;51.436;-2.742;2022-08-16T12:18:28;31.40;51.30
33863;DHT22;20158;51.436;-2.742;2022-08-16T12:20:54;31.40;51.30
33863;DHT22;20158;51.436;-2.742;2022-08-16T12:23:20;31.30;51.20
33863;DHT22;20158;51.436;-2.742;2022-08-16T12:25:46;31.30;51.20
33863;DHT22;20158;51.436;-2.742;2022-08-16T12:28:13;31.30;51.20
33863;DHT22;20158;51.436;-2.742;2022-08-16T12:30:42;31.20;51.20
33863;DHT22;20158;51.436;-2.742;2022-08-16T12:33:09;31.20;51.20
33863;DHT22;20158;51.436;-2.742;2022-08-16T12:35:38;31.10;51.20
33863;DHT22;20158;51.436;-2.742;2022-08-16T12:38:04;31.10;51.20
33863;DHT22;20158;51.436;-2.742;2022-08-16T12:40:34;31.10;51.20
33863;DHT22;20158;51.436;-2.742;2022-08-16T12:43:03;31.10;51.20
33863;DHT22;20158;51.436;-2.742;2022-08-16T12:45:35;31.10;51.20
33863;DHT22;20158;51.436;-2.742;2022-08-16T12:48:04;31.10;51.10
33863;DHT22;20158;51.436;-2.742;2022-08-16T12:50:49;31.10;51.10
33863;DHT22;20158;51.436;-2.742;2022-08-16T12:53:15;31.20;51.10
33863;DHT22;20158;51.436;-2.742;2022-08-16T12:55:41;31.20;51.10
33863;DHT22;20158;51.436;-2.742;2022-08-16T12:58:09;31.20;51.00
33863;DHT22;20158;51.436;-2.742;2022-08-16T13:00:35;31.30;51.00
33863;DHT22;20158;51.436;-2.742;2022-08-16T13:03:02;31.30;51.00
33863;DHT22;20158;51.436;-2.742;2022-08-16T13:05:28;31.30;50.90
33863;DHT22;20158;51.436;-2.742;2022-08-16T13:07:56;31.30;50.90
33863;DHT22;20158;51.436;-2.742;2022-08-16T13:10:24;31.20;50.90
33863;DHT22;20158;51.436;-2.742;2022-08-16T13:12:53;31.20;51.00
33863;DHT22;20158;51.436;-2.742;2022-08-16T13:15:24;31.10;51.10
33863;DHT22;20158;51.436;-2.742;2022-08-16T13:17:50;31.00;51.00
33863;DHT22;20158;51.436;-2.742;2022-08-16T13:20:19;30.90;51.10
33863;DHT22;20158;51.436;-2.742;2022-08-16T13:22:53;30.90;51.30
33863;DHT22;20158;51.436;-2.742;2022-08-16T13:25:24;30.90;51.40
33863;DHT22;20158;51.436;-2.742;2022-08-16T13:27:52;30.90;51.40
33863;DHT22;20158;51.436;-2.742;2022-08-16T13:30:19;30.90;51.40
33863;DHT22;20158;51.436;-2.742;2022-08-16T13:32:45;30.90;51.40
33863;DHT22;20158;51.436;-2.742;2022-08-16T13:35:11;31.10;51.40
33863;DHT22;20158;51.436;-2.742;2022-08-16T13:37:37;31.20;51.20
33863;DHT22;20158;51.436;-2.742;2022-08-16T13:40:04;31.30;51.10
33863;DHT22;20158;51.436;-2.742;2022-08-16T13:42:31;31.50;50.90
33863;DHT22;20158;51.436;-2.742;2022-08-16T13:44:57;31.70;50.80
33863;DHT22;20158;51.436;-2.742;2022-08-16T13:47:24;31.90;50.60
33863;DHT22;20158;51.436;-2.742;2022-08-16T13:49:50;31.90;50.00
33863;DHT22;20158;51.436;-2.742;2022-08-16T13:52:16;32.00;49.50
33863;DHT22;20158;51.436;-2.742;2022-08-16T13:54:43;32.10;49.40
33863;DHT22;20158;51.436;-2.742;2022-08-16T13:57:09;32.20;49.20
33863;DHT22;20158;51.436;-2.742;2022-08-16T13:59:36;32.40;49.10
33863;DHT22;20158;51.436;-2.742;2022-08-16T14:02:02;32.60;48.70
33863;DHT22;20158;51.436;-2.742;2022-08-16T14:04:33;32.80;48.50
33863;DHT22;20158;51.436;-2.742;2022-08-16T14:07:00;33.00;48.10
33863;DHT22;20158;51.436;-2.742;2022-08-16T14:09:27;33.40;47.80
33863;DHT22;20158;51.436;-2.742;2022-08-16T14:11:58;33.80;47.90
33863;DHT22;20158;51.436;-2.742;2022-08-16T14:14:27;34.00;46.70
33863;DHT22;20158;51.436;-2.742;2022-08-16T14:16:53;34.30;46.40
33863;DHT22;20158;51.436;-2.742;2022-08-16T14:19:19;34.60;46.20
33863;DHT22;20158;51.436;-2.742;2022-08-16T14:21:47;34.70;46.00
33863;DHT22;20158;51.436;-2.742;2022-08-16T14:24:13;34.90;45.70
33863;DHT22;20158;51.436;-2.742;2022-08-16T14:26:41;35.10;45.50
33863;DHT22;20158;51.436;-2.742;2022-08-16T14:29:07;35.40;45.10
33863;DHT22;20158;51.436;-2.742;2022-08-16T14:31:33;35.70;44.80
33863;DHT22;20158;51.436;-2.742;2022-08-16T14:33:59;36.00;44.30
33863;DHT22;20158;51.436;-2.742;2022-08-16T14:36:25;36.10;44.00
33863;DHT22;20158;51.436;-2.742;2022-08-16T14:38:50;36.10;43.70
33863;DHT22;20158;51.436;-2.742;2022-08-16T14:41:16;36.00;43.50
33863;DHT22;20158;51.436;-2.742;2022-08-16T14:43:42;35.90;43.40
33863;DHT22;20158;51.436;-2.742;2022-08-16T14:46:08;35.70;43.40
33863;DHT22;20158;51.436;-2.742;2022-08-16T14:48:34;35.50;43.50
33863;DHT22;20158;51.436;-2.742;2022-08-16T14:51:00;35.10;43.50
33863;DHT22;20158;51.436;-2.742;2022-08-16T14:53:26;34.80;43.60
33863;DHT22;20158;51.436;-2.742;2022-08-16T14:55:53;34.50;43.90
33863;DHT22;20158;51.436;-2.742;2022-08-16T14:58:19;34.20;44.10
33863;DHT22;20158;51.436;-2.742;2022-08-16T15:00:46;33.90;44.50
33863;DHT22;20158;51.436;-2.742;2022-08-16T15:03:12;33.50;44.80
33863;DHT22;20158;51.436;-2.742;2022-08-16T15:05:39;33.20;45.20
33863;DHT22;20158;51.436;-2.742;2022-08-16T15:08:06;33.00;46.30
33863;DHT22;20158;51.436;-2.742;2022-08-16T15:10:33;32.70;46.10
33863;DHT22;20158;51.436;-2.742;2022-08-16T15:12:59;32.30;46.40
33863;DHT22;20158;51.436;-2.742;2022-08-16T15:15:28;32.10;46.80
33863;DHT22;20158;51.436;-2.742;2022-08-16T15:17:54;31.80;47.20
33863;DHT22;20158;51.436;-2.742;2022-08-16T15:20:21;31.60;47.70
33863;DHT22;20158;51.436;-2.742;2022-08-16T15:22:48;31.30;48.00